Lady Jeanete — HKAH9 — position and weather

sailwx.info

Track history (hours):
 
Tides and Currents Weather Stations Pressure Air Temp Water Temp Dewpoint Dewpoint Depression Visibility Wind Speed Wind Dir Waves Ship Positions

Lady Jeanete

Last reported at 2017-Nov-25 07:30 UTC. Time now 2017-Nov-25 07:45 UTC.
Position N 10°17' W 075°31'.

MMSI: 730005000.

Date/timePositionNaut miles runAvg speedWind from/ knotsBaromVisibWave heightAir tempDewpointWater temp
2017-Nov-25 07:30N 10°17' W 075°31'0 0.0
2017-Nov-25 07:00N 10°17' W 075°31'0 0.0
2017-Nov-25 06:30N 10°17' W 075°31'0 0.0
2017-Nov-25 06:00N 10°17' W 075°31'0 0.0
2017-Nov-25 05:29N 10°17' W 075°31'0 0.0
2017-Nov-25 05:00N 10°17' W 075°31'0 0.0
2017-Nov-25 04:30N 10°17' W 075°31'0 0.0
2017-Nov-25 04:00N 10°17' W 075°31'0 0.0
2017-Nov-25 03:30N 10°17' W 075°31'0 0.0
2017-Nov-25 03:00N 10°17' W 075°31'0 0.0
2017-Nov-25 02:30N 10°17' W 075°31'0 0.0
2017-Nov-25 02:00N 10°17' W 075°31'0 0.0
2017-Nov-25 01:30N 10°17' W 075°31'0 0.0
2017-Nov-25 01:00N 10°17' W 075°31'0 0.0
2017-Nov-25 00:30N 10°17' W 075°31'0 0.0
2017-Nov-25 00:00N 10°17' W 075°31'1 1.2
2017-Nov-24 23:30N 10°17' W 075°31'4 9.2
2017-Nov-24 23:01N 10°12' W 075°31'61 5.0
2017-Nov-24 11:00N 10°52' W 074°44'3 6.8
2017-Nov-24 10:30N 10°55' W 074°44'3 6.0
2017-Nov-24 10:00N 10°58' W 074°45'1 0.9
2017-Nov-24 09:16N 10°58' W 074°46'0 0.0
2017-Nov-24 09:00N 10°58' W 074°46'0 0.0
2017-Nov-24 08:30N 10°58' W 074°46'0 0.0
2017-Nov-24 08:00N 10°58' W 074°46'0 0.0
2017-Nov-24 07:30N 10°58' W 074°46'0 0.0
2017-Nov-24 07:00N 10°58' W 074°46'0 0.0
2017-Nov-24 06:30N 10°58' W 074°46'0 0.0
2017-Nov-24 06:00N 10°58' W 074°46'0 0.0
2017-Nov-24 05:30N 10°58' W 074°46'0 0.0
2017-Nov-24 05:00N 10°58' W 074°46'0 0.0
2017-Nov-24 04:30N 10°58' W 074°46'0 0.0
2017-Nov-24 04:00N 10°58' W 074°46'0 0.0
2017-Nov-24 03:30N 10°58' W 074°46'0 0.0
2017-Nov-24 03:00N 10°58' W 074°46'0 0.0
2017-Nov-24 02:30N 10°58' W 074°46'0 0.0
2017-Nov-24 02:00N 10°58' W 074°46'1 2.5
2017-Nov-24 01:30N 10°60' W 074°46'3 6.3
2017-Nov-24 00:59N 11°02' W 074°48'3 4.4
2017-Nov-24 00:25N 11°03' W 074°50'0 0.3
2017-Nov-24 00:00N 11°03' W 074°50'4 3.7
2017-Nov-23 23:02N 11°07' W 074°52'0 5.9
2017-Nov-23 23:00N 11°07' W 074°52'1 1.1
2017-Nov-23 22:30N 11°07' W 074°51'4 7.8
2017-Nov-23 22:00N 11°03' W 074°50'4 8.0
2017-Nov-23 21:30N 11°01' W 074°47'3 5.0
2017-Nov-23 21:00N 10°58' W 074°46'0 0.0
2017-Nov-23 20:30N 10°58' W 074°46'0 0.0
2017-Nov-23 19:59N 10°58' W 074°46'0 0.0
2017-Nov-23 19:30N 10°58' W 074°46'0 0.0
2017-Nov-23 19:00N 10°58' W 074°46'0 0.0
2017-Nov-23 18:30N 10°58' W 074°46'0 0.0
2017-Nov-23 18:00N 10°58' W 074°46'0 0.0
2017-Nov-23 17:30N 10°58' W 074°46'0 0.0
2017-Nov-23 17:00N 10°58' W 074°46'0 0.0
2017-Nov-23 16:30N 10°58' W 074°46'0 0.0
2017-Nov-23 16:00N 10°58' W 074°46'1 1.1
2017-Nov-23 15:30N 10°59' W 074°46'2 3.2
2017-Nov-23 15:00N 11°00' W 074°46'2 3.6
2017-Nov-23 14:30N 11°01' W 074°48'2 3.6
2017-Nov-23 14:00N 11°03' W 074°49'1 2.5
2017-Nov-23 13:30N 11°03' W 074°50'2 4.3
2017-Nov-23 13:00N 11°05' W 074°51'2 3.6
2017-Nov-23 12:30N 11°07' W 074°52'0 1.0
2017-Nov-23 12:00N 11°07' W 074°52'3 6.0
2017-Nov-23 11:29N 11°04' W 074°51'1 2.2
2017-Nov-23 10:56N 11°03' W 074°50'0 0.0
2017-Nov-23 10:30N 11°03' W 074°50'0 0.0
2017-Nov-23 09:59N 11°03' W 074°50'0 0.0
2017-Nov-23 09:16N 11°03' W 074°50'0 0.0
2017-Nov-23 08:43N 11°03' W 074°50'0 0.0
2017-Nov-23 08:28N 11°03' W 074°50'0 0.0
2017-Nov-23 08:00N 11°03' W 074°50'0 0.0
2017-Nov-23 07:28N 11°03' W 074°50'0 0.0
2017-Nov-23 06:59N 11°03' W 074°50'0 0.0
2017-Nov-23 06:23N 11°03' W 074°50'0 0.0
2017-Nov-23 05:58N 11°03' W 074°50'0 0.0
2017-Nov-23 05:24N 11°03' W 074°50'0 0.0
2017-Nov-23 05:00N 11°03' W 074°50'0 0.0
2017-Nov-23 04:30N 11°03' W 074°50'0 0.0
2017-Nov-23 03:54N 11°03' W 074°50'0 0.0
2017-Nov-23 03:30N 11°03' W 074°50'0 0.0
2017-Nov-23 03:00N 11°03' W 074°50'0 0.0
2017-Nov-23 02:30N 11°03' W 074°50'0 0.0
2017-Nov-23 01:59N 11°03' W 074°50'0 0.0
2017-Nov-23 01:30N 11°03' W 074°50'0 0.0
2017-Nov-23 00:59N 11°03' W 074°50'3 4.5
2017-Nov-23 00:24N 11°02' W 074°48'3 8.1
2017-Nov-23 00:00N 10°60' W 074°46'1 2.6
2017-Nov-22 23:30N 10°58' W 074°46'0 0.0
2017-Nov-22 23:00N 10°58' W 074°46'0 0.0
2017-Nov-22 22:30N 10°58' W 074°46'0 0.0
2017-Nov-22 22:00N 10°58' W 074°46'0 0.0
2017-Nov-22 21:30N 10°58' W 074°46'0 0.0
2017-Nov-22 21:00N 10°58' W 074°46'0 0.0
2017-Nov-22 20:30N 10°58' W 074°46'0 0.0
2017-Nov-22 20:00N 10°58' W 074°46'0 0.0
2017-Nov-22 19:30N 10°58' W 074°46'  
2017-Nov-19 15:30N 11°01' W 074°47'2 4.0
2017-Nov-19 15:00N 11°02' W 074°49'2 3.8
2017-Nov-19 14:30N 11°03' W 074°50'2 4.4
2017-Nov-19 14:00N 11°05' W 074°51'2 3.6
2017-Nov-19 13:30N 11°07' W 074°52'1 1.1
2017-Nov-19 13:00N 11°07' W 074°52'3 6.5
2017-Nov-19 12:30N 11°04' W 074°50'1 1.1
2017-Nov-19 12:00N 11°03' W 074°50'7 0.4
2017-Nov-18 17:06N 10°58' W 074°45'4 3.9
2017-Nov-18 16:09N 11°01' W 074°47'1 4.0
2017-Nov-18 16:00N 11°02' W 074°48'2 4.0
2017-Nov-18 15:30N 11°03' W 074°49'2 3.2
2017-Nov-18 15:00N 11°04' W 074°50'2 4.4
2017-Nov-18 14:30N 11°06' W 074°51'2 3.3
2017-Nov-18 13:58N 11°07' W 074°53'2 3.8
2017-Nov-18 13:30N 11°06' W 074°51'3 5.4
2017-Nov-18 13:00N 11°04' W 074°50'4 6.9
2017-Nov-18 12:30N 11°01' W 074°47'1 0.0
2017-Nov-17 16:13N 11°01' W 074°47'1 4.4
2017-Nov-17 16:00N 11°01' W 074°48'2 4.0
2017-Nov-17 15:30N 11°03' W 074°49'1 2.4
2017-Nov-17 15:00N 11°03' W 074°50'1 1.0
2017-Nov-17 14:30N 11°04' W 074°50'2 4.1
2017-Nov-17 13:59N 11°06' W 074°51'2 3.2
2017-Nov-17 13:30N 11°07' W 074°52'0 0.6
2017-Nov-17 13:00N 11°07' W 074°52'3 6.8
2017-Nov-17 12:30N 11°04' W 074°50'2 0.2
2017-Nov-16 23:13N 11°06' W 074°51'1 2.9
2017-Nov-16 23:00N 11°07' W 074°51'1 2.5
2017-Nov-16 22:30N 11°07' W 074°53'2 4.0
2017-Nov-16 22:00N 11°05' W 074°51'4 7.9
2017-Nov-16 21:30N 11°02' W 074°49'2 0.2
2017-Nov-16 14:29N 11°01' W 074°47'2 4.0
2017-Nov-16 14:00N 11°02' W 074°49'1 2.5
2017-Nov-16 13:30N 11°03' W 074°50'2 4.4
2017-Nov-16 12:58N 11°05' W 074°51'2 3.4
2017-Nov-16 12:29N 11°07' W 074°52'1 1.4
2017-Nov-16 12:00N 11°07' W 074°52'11 0.7
2017-Nov-15 19:42N 10°58' W 074°46'3 1.2
2017-Nov-15 17:24N 11°01' W 074°47'2 4.0
2017-Nov-15 16:59N 11°02' W 074°48'2 4.1
2017-Nov-15 16:30N 11°03' W 074°50'0 1.0
2017-Nov-15 16:00N 11°03' W 074°50'0 0.3
2017-Nov-15 15:30N 11°03' W 074°50'1 1.4
2017-Nov-15 15:00N 11°04' W 074°50'2 4.4
2017-Nov-15 14:30N 11°06' W 074°51'2 3.3
2017-Nov-15 14:00N 11°07' W 074°52'1 1.6
2017-Nov-15 13:30N 11°07' W 074°52'4 7.4
2017-Nov-15 13:00N 11°03' W 074°50'  
Track history (hours):
 
Tides and Currents Weather Stations Pressure Air Temp Water Temp Dewpoint Dewpoint Depression Visibility Wind Speed Wind Dir Waves Ship Positions

Lady Jeanete

Last reported at 2017-Nov-25 07:30 UTC. Time now 2017-Nov-25 07:45 UTC.
Position N 10°17' W 075°31'.

MMSI: 730005000.

Date/timePositionNaut miles runAvg speedWind from/ knotsBaromVisibWave heightAir tempDewpointWater temp
2017-Nov-25 07:30N 10°17' W 075°31'0 0.0
2017-Nov-25 07:00N 10°17' W 075°31'0 0.0
2017-Nov-25 06:30N 10°17' W 075°31'0 0.0
2017-Nov-25 06:00N 10°17' W 075°31'0 0.0
2017-Nov-25 05:29N 10°17' W 075°31'0 0.0
2017-Nov-25 05:00N 10°17' W 075°31'0 0.0
2017-Nov-25 04:30N 10°17' W 075°31'0 0.0
2017-Nov-25 04:00N 10°17' W 075°31'0 0.0
2017-Nov-25 03:30N 10°17' W 075°31'0 0.0
2017-Nov-25 03:00N 10°17' W 075°31'0 0.0
2017-Nov-25 02:30N 10°17' W 075°31'0 0.0
2017-Nov-25 02:00N 10°17' W 075°31'0 0.0
2017-Nov-25 01:30N 10°17' W 075°31'0 0.0
2017-Nov-25 01:00N 10°17' W 075°31'0 0.0
2017-Nov-25 00:30N 10°17' W 075°31'0 0.0
2017-Nov-25 00:00N 10°17' W 075°31'1 1.2
2017-Nov-24 23:30N 10°17' W 075°31'4 9.2
2017-Nov-24 23:01N 10°12' W 075°31'61 5.0
2017-Nov-24 11:00N 10°52' W 074°44'3 6.8
2017-Nov-24 10:30N 10°55' W 074°44'3 6.0
2017-Nov-24 10:00N 10°58' W 074°45'1 0.9
2017-Nov-24 09:16N 10°58' W 074°46'0 0.0
2017-Nov-24 09:00N 10°58' W 074°46'0 0.0
2017-Nov-24 08:30N 10°58' W 074°46'0 0.0
2017-Nov-24 08:00N 10°58' W 074°46'0 0.0
2017-Nov-24 07:30N 10°58' W 074°46'0 0.0
2017-Nov-24 07:00N 10°58' W 074°46'0 0.0
2017-Nov-24 06:30N 10°58' W 074°46'0 0.0
2017-Nov-24 06:00N 10°58' W 074°46'0 0.0
2017-Nov-24 05:30N 10°58' W 074°46'0 0.0
2017-Nov-24 05:00N 10°58' W 074°46'0 0.0
2017-Nov-24 04:30N 10°58' W 074°46'0 0.0
2017-Nov-24 04:00N 10°58' W 074°46'0 0.0
2017-Nov-24 03:30N 10°58' W 074°46'0 0.0
2017-Nov-24 03:00N 10°58' W 074°46'0 0.0
2017-Nov-24 02:30N 10°58' W 074°46'0 0.0
2017-Nov-24 02:00N 10°58' W 074°46'1 2.5
2017-Nov-24 01:30N 10°60' W 074°46'3 6.3
2017-Nov-24 00:59N 11°02' W 074°48'3 4.4
2017-Nov-24 00:25N 11°03' W 074°50'0 0.3
2017-Nov-24 00:00N 11°03' W 074°50'4 3.7
2017-Nov-23 23:02N 11°07' W 074°52'0 5.9
2017-Nov-23 23:00N 11°07' W 074°52'1 1.1
2017-Nov-23 22:30N 11°07' W 074°51'4 7.8
2017-Nov-23 22:00N 11°03' W 074°50'4 8.0
2017-Nov-23 21:30N 11°01' W 074°47'3 5.0
2017-Nov-23 21:00N 10°58' W 074°46'0 0.0
2017-Nov-23 20:30N 10°58' W 074°46'0 0.0
2017-Nov-23 19:59N 10°58' W 074°46'0 0.0
2017-Nov-23 19:30N 10°58' W 074°46'0 0.0
2017-Nov-23 19:00N 10°58' W 074°46'0 0.0
2017-Nov-23 18:30N 10°58' W 074°46'0 0.0
2017-Nov-23 18:00N 10°58' W 074°46'0 0.0
2017-Nov-23 17:30N 10°58' W 074°46'0 0.0
2017-Nov-23 17:00N 10°58' W 074°46'0 0.0
2017-Nov-23 16:30N 10°58' W 074°46'0 0.0
2017-Nov-23 16:00N 10°58' W 074°46'1 1.1
2017-Nov-23 15:30N 10°59' W 074°46'2 3.2
2017-Nov-23 15:00N 11°00' W 074°46'2 3.6
2017-Nov-23 14:30N 11°01' W 074°48'2 3.6
2017-Nov-23 14:00N 11°03' W 074°49'1 2.5
2017-Nov-23 13:30N 11°03' W 074°50'2 4.3
2017-Nov-23 13:00N 11°05' W 074°51'2 3.6
2017-Nov-23 12:30N 11°07' W 074°52'0 1.0
2017-Nov-23 12:00N 11°07' W 074°52'3 6.0
2017-Nov-23 11:29N 11°04' W 074°51'1 2.2
2017-Nov-23 10:56N 11°03' W 074°50'0 0.0
2017-Nov-23 10:30N 11°03' W 074°50'0 0.0
2017-Nov-23 09:59N 11°03' W 074°50'0 0.0
2017-Nov-23 09:16N 11°03' W 074°50'0 0.0
2017-Nov-23 08:43N 11°03' W 074°50'0 0.0
2017-Nov-23 08:28N 11°03' W 074°50'0 0.0
2017-Nov-23 08:00N 11°03' W 074°50'0 0.0
2017-Nov-23 07:28N 11°03' W 074°50'0 0.0
2017-Nov-23 06:59N 11°03' W 074°50'0 0.0
2017-Nov-23 06:23N 11°03' W 074°50'0 0.0
2017-Nov-23 05:58N 11°03' W 074°50'0 0.0
2017-Nov-23 05:24N 11°03' W 074°50'0 0.0
2017-Nov-23 05:00N 11°03' W 074°50'0 0.0
2017-Nov-23 04:30N 11°03' W 074°50'0 0.0
2017-Nov-23 03:54N 11°03' W 074°50'0 0.0
2017-Nov-23 03:30N 11°03' W 074°50'0 0.0
2017-Nov-23 03:00N 11°03' W 074°50'0 0.0
2017-Nov-23 02:30N 11°03' W 074°50'0 0.0
2017-Nov-23 01:59N 11°03' W 074°50'0 0.0
2017-Nov-23 01:30N 11°03' W 074°50'0 0.0
2017-Nov-23 00:59N 11°03' W 074°50'3 4.5
2017-Nov-23 00:24N 11°02' W 074°48'3 8.1
2017-Nov-23 00:00N 10°60' W 074°46'1 2.6
2017-Nov-22 23:30N 10°58' W 074°46'0 0.0
2017-Nov-22 23:00N 10°58' W 074°46'0 0.0
2017-Nov-22 22:30N 10°58' W 074°46'0 0.0
2017-Nov-22 22:00N 10°58' W 074°46'0 0.0
2017-Nov-22 21:30N 10°58' W 074°46'0 0.0
2017-Nov-22 21:00N 10°58' W 074°46'0 0.0
2017-Nov-22 20:30N 10°58' W 074°46'0 0.0
2017-Nov-22 20:00N 10°58' W 074°46'0 0.0
2017-Nov-22 19:30N 10°58' W 074°46'  
2017-Nov-19 15:30N 11°01' W 074°47'2 4.0
2017-Nov-19 15:00N 11°02' W 074°49'2 3.8
2017-Nov-19 14:30N 11°03' W 074°50'2 4.4
2017-Nov-19 14:00N 11°05' W 074°51'2 3.6
2017-Nov-19 13:30N 11°07' W 074°52'1 1.1
2017-Nov-19 13:00N 11°07' W 074°52'3 6.5
2017-Nov-19 12:30N 11°04' W 074°50'1 1.1
2017-Nov-19 12:00N 11°03' W 074°50'7 0.4
2017-Nov-18 17:06N 10°58' W 074°45'4 3.9
2017-Nov-18 16:09N 11°01' W 074°47'1 4.0
2017-Nov-18 16:00N 11°02' W 074°48'2 4.0
2017-Nov-18 15:30N 11°03' W 074°49'2 3.2
2017-Nov-18 15:00N 11°04' W 074°50'2 4.4
2017-Nov-18 14:30N 11°06' W 074°51'2 3.3
2017-Nov-18 13:58N 11°07' W 074°53'2 3.8
2017-Nov-18 13:30N 11°06' W 074°51'3 5.4
2017-Nov-18 13:00N 11°04' W 074°50'4 6.9
2017-Nov-18 12:30N 11°01' W 074°47'1 0.0
2017-Nov-17 16:13N 11°01' W 074°47'1 4.4
2017-Nov-17 16:00N 11°01' W 074°48'2 4.0
2017-Nov-17 15:30N 11°03' W 074°49'1 2.4
2017-Nov-17 15:00N 11°03' W 074°50'1 1.0
2017-Nov-17 14:30N 11°04' W 074°50'2 4.1
2017-Nov-17 13:59N 11°06' W 074°51'2 3.2
2017-Nov-17 13:30N 11°07' W 074°52'0 0.6
2017-Nov-17 13:00N 11°07' W 074°52'3 6.8
2017-Nov-17 12:30N 11°04' W 074°50'2 0.2
2017-Nov-16 23:13N 11°06' W 074°51'1 2.9
2017-Nov-16 23:00N 11°07' W 074°51'1 2.5
2017-Nov-16 22:30N 11°07' W 074°53'2 4.0
2017-Nov-16 22:00N 11°05' W 074°51'4 7.9
2017-Nov-16 21:30N 11°02' W 074°49'2 0.2
2017-Nov-16 14:29N 11°01' W 074°47'2 4.0
2017-Nov-16 14:00N 11°02' W 074°49'1 2.5
2017-Nov-16 13:30N 11°03' W 074°50'2 4.4
2017-Nov-16 12:58N 11°05' W 074°51'2 3.4
2017-Nov-16 12:29N 11°07' W 074°52'1 1.4
2017-Nov-16 12:00N 11°07' W 074°52'11 0.7
2017-Nov-15 19:42N 10°58' W 074°46'3 1.2
2017-Nov-15 17:24N 11°01' W 074°47'2 4.0
2017-Nov-15 16:59N 11°02' W 074°48'2 4.1
2017-Nov-15 16:30N 11°03' W 074°50'0 1.0
2017-Nov-15 16:00N 11°03' W 074°50'0 0.3
2017-Nov-15 15:30N 11°03' W 074°50'1 1.4
2017-Nov-15 15:00N 11°04' W 074°50'2 4.4
2017-Nov-15 14:30N 11°06' W 074°51'2 3.3
2017-Nov-15 14:00N 11°07' W 074°52'1 1.6
2017-Nov-15 13:30N 11°07' W 074°52'4 7.4
2017-Nov-15 13:00N 11°03' W 074°50'  

Dump ship's entire track history